Time;durP1;ratioP1;P1;durP2;ratioP2;P2;SDS_P1;SDS_P2;PMS_P1;PMS_P2;Temp;Humidity;BMP_temperature;BMP_pressure;BME280_temperature;BME280_humidity;BME280_pressure;Samples;Min_cycle;Max_cycle;Signal;HPM_P1;HPM_P2
2021/11/16 00:00:18;;;;;;;82.20;48.78;;;;;;;;;;5053022;28;20028;-46
2021/11/16 00:02:44;;;;;;;91.82;50.50;;;;;;;;;;5053136;28;20104;-46
2021/11/16 00:05:11;;;;;;;75.80;44.38;;;;;;;;;;5052818;28;20021;-46
2021/11/16 00:07:37;;;;;;;71.57;41.10;;;;;;;;;;5052527;28;20048;-45
2021/11/16 00:10:04;;;;;;;74.68;43.80;;;;;;;;;;5053026;28;20496;-45
2021/11/16 00:12:30;;;;;;;84.80;48.33;;;;;;;;;;5052878;28;20021;-46
2021/11/16 00:14:57;;;;;;;70.20;40.08;;;;;;;;;;5053014;28;20385;-46
2021/11/16 00:17:23;;;;;;;75.43;41.80;;;;;;;;;;5052817;28;20021;-46
2021/11/16 00:19:50;;;;;;;68.18;38.08;;;;;;;;;;5052592;28;20078;-46
2021/11/16 00:22:18;;;;;;;72.80;41.65;;;;;;;;;;5051797;28;20108;-48
2021/11/16 00:25:34;;;;;;;72.13;40.90;;;;;;;;;;5052963;28;20025;-47
2021/11/16 00:27:33;;;;;;;72.60;39.70;;;;;;;;;;5048552;28;20079;-45
2021/11/16 00:29:59;;;;;;;68.57;39.40;;;;;;;;;;5052717;28;20029;-45
2021/11/16 00:32:25;;;;;;;68.95;37.95;;;;;;;;;;5052665;28;20021;-45
2021/11/16 00:34:52;;;;;;;79.00;42.30;;;;;;;;;;5052673;28;20033;-45
2021/11/16 00:37:25;;;;;;;76.28;43.20;;;;;;;;;;5053011;28;20027;-47
2021/11/16 00:39:52;;;;;;;64.07;38.22;;;;;;;;;;5052797;28;20108;-47
2021/11/16 00:42:19;;;;;;;63.30;37.47;;;;;;;;;;5052982;28;20024;-46
2021/11/16 00:44:45;;;;;;;64.95;38.17;;;;;;;;;;5052736;28;20107;-46
2021/11/16 00:47:13;;;;;;;63.90;36.13;;;;;;;;;;5052543;28;20017;-46
2021/11/16 00:49:40;;;;;;;66.28;38.38;;;;;;;;;;5052618;28;20062;-48
2021/11/16 00:52:06;;;;;;;66.80;37.60;;;;;;;;;;5052526;28;20101;-47
2021/11/16 00:54:33;;;;;;;62.95;34.20;;;;;;;;;;5052756;28;20025;-46
2021/11/16 00:56:59;;;;;;;63.40;37.55;;;;;;;;;;5052587;28;20121;-46
2021/11/16 00:59:25;;;;;;;62.30;36.75;;;;;;;;;;5052515;28;20104;-46
2021/11/16 01:01:51;;;;;;;61.70;34.53;;;;;;;;;;5052556;28;20021;-46
2021/11/16 01:04:18;;;;;;;62.78;34.03;;;;;;;;;;5052435;28;20047;-47
2021/11/16 01:06:44;;;;;;;56.65;33.78;;;;;;;;;;5054547;28;20468;-47
2021/11/16 01:09:14;;;;;;;58.40;33.20;;;;;;;;;;5056541;28;20491;-47
2021/11/16 01:11:40;;;;;;;59.45;34.05;;;;;;;;;;5056500;28;20049;-45
2021/11/16 01:14:07;;;;;;;64.43;36.10;;;;;;;;;;5056281;28;20083;-46
2021/11/16 01:16:33;;;;;;;56.92;35.10;;;;;;;;;;5056058;28;20032;-46
2021/11/16 01:19:01;;;;;;;57.80;33.92;;;;;;;;;;5056363;28;20059;-47
2021/11/16 01:21:27;;;;;;;60.80;33.10;;;;;;;;;;5056132;28;20477;-46
2021/11/16 01:23:53;;;;;;;61.25;35.92;;;;;;;;;;5056180;28;20037;-46
2021/11/16 01:26:19;;;;;;;62.63;36.08;;;;;;;;;;5056194;28;20017;-45
2021/11/16 01:28:46;;;;;;;52.35;32.15;;;;;;;;;;5055920;28;20489;-46
2021/11/16 01:31:14;;;;;;;57.13;34.30;;;;;;;;;;5055932;28;20115;-46
2021/11/16 01:33:55;;;;;;;59.47;33.58;;;;;;;;;;5056121;28;20100;-46
2021/11/16 01:36:26;;;;;;;60.95;36.03;;;;;;;;;;5055921;28;20021;-46
2021/11/16 01:38:55;;;;;;;60.22;33.58;;;;;;;;;;5055744;28;20514;-46
2021/11/16 01:41:21;;;;;;;62.25;35.67;;;;;;;;;;5055920;28;20071;-46
2021/11/16 01:43:48;;;;;;;63.83;35.88;;;;;;;;;;5055645;28;20033;-46
2021/11/16 01:46:15;;;;;;;63.60;36.95;;;;;;;;;;5055997;28;20025;-45
2021/11/16 01:48:42;;;;;;;63.70;37.03;;;;;;;;;;5055641;28;20094;-46
2021/11/16 01:51:08;;;;;;;60.17;36.00;;;;;;;;;;5055268;28;20037;-45
2021/11/16 01:53:34;;;;;;;65.47;37.42;;;;;;;;;;5055631;28;20070;-46
2021/11/16 01:56:02;;;;;;;62.55;35.35;;;;;;;;;;5055549;28;20378;-47
2021/11/16 01:58:31;;;;;;;64.63;39.47;;;;;;;;;;5055405;28;20025;-46
2021/11/16 02:00:57;;;;;;;69.88;38.22;;;;;;;;;;5055512;28;20024;-46
2021/11/16 02:03:23;;;;;;;68.53;38.92;;;;;;;;;;5055377;28;20428;-47
2021/11/16 02:05:51;;;;;;;67.85;39.05;;;;;;;;;;5055434;28;20055;-47
2021/11/16 02:08:20;;;;;;;66.20;36.85;;;;;;;;;;5055328;28;20060;-46
2021/11/16 02:10:50;;;;;;;68.80;38.28;;;;;;;;;;5055306;28;20036;-45
2021/11/16 02:13:19;;;;;;;68.75;38.67;;;;;;;;;;5055143;28;20414;-46
2021/11/16 02:15:46;;;;;;;63.88;38.90;;;;;;;;;;5055168;28;20090;-46
2021/11/16 02:18:13;;;;;;;67.20;38.50;;;;;;;;;;5054081;28;20385;-45
2021/11/16 02:20:43;;;;;;;63.80;38.10;;;;;;;;;;5055016;28;20173;-46
2021/11/16 02:23:10;;;;;;;66.32;36.33;;;;;;;;;;5053795;28;20045;-46
2021/11/16 02:25:36;;;;;;;62.42;36.83;;;;;;;;;;5055003;28;20025;-46
2021/11/16 02:28:03;;;;;;;60.35;35.70;;;;;;;;;;5054920;28;20029;-45
2021/11/16 02:30:29;;;;;;;70.15;39.90;;;;;;;;;;5055125;28;20029;-46
2021/11/16 02:32:56;;;;;;;62.22;34.70;;;;;;;;;;5054993;28;20481;-45
2021/11/16 02:35:25;;;;;;;54.97;32.67;;;;;;;;;;5054821;28;20021;-45
2021/11/16 02:37:51;;;;;;;52.78;31.95;;;;;;;;;;5055075;28;20361;-47
2021/11/16 02:40:17;;;;;;;57.95;32.78;;;;;;;;;;5055116;28;20507;-47
2021/11/16 02:42:43;;;;;;;53.58;31.48;;;;;;;;;;5054680;28;20056;-47
2021/11/16 02:45:10;;;;;;;55.28;32.72;;;;;;;;;;5054630;28;20017;-47
2021/11/16 02:47:36;;;;;;;61.75;31.17;;;;;;;;;;5054630;28;20070;-47
2021/11/16 02:50:04;;;;;;;55.92;30.48;;;;;;;;;;5054452;28;20513;-47
2021/11/16 02:52:30;;;;;;;59.30;29.88;;;;;;;;;;5054514;28;20493;-48
2021/11/16 02:54:56;;;;;;;59.28;29.02;;;;;;;;;;5054535;28;20132;-47
2021/11/16 02:57:25;;;;;;;55.33;29.50;;;;;;;;;;5054376;28;20028;-45
2021/11/16 02:59:51;;;;;;;48.10;28.00;;;;;;;;;;5054296;28;20413;-46
2021/11/16 03:02:18;;;;;;;45.92;26.30;;;;;;;;;;5054387;28;20053;-45
2021/11/16 03:04:45;;;;;;;50.45;29.00;;;;;;;;;;5054298;28;20032;-47
2021/11/16 03:07:12;;;;;;;53.67;30.33;;;;;;;;;;5054233;28;20033;-45
2021/11/16 03:09:39;;;;;;;48.92;30.25;;;;;;;;;;5054211;28;20116;-45
2021/11/16 03:12:06;;;;;;;50.78;29.52;;;;;;;;;;5054131;28;20087;-47
2021/11/16 03:14:32;;;;;;;50.22;31.25;;;;;;;;;;5054111;28;20031;-46
2021/11/16 03:16:58;;;;;;;54.97;30.27;;;;;;;;;;5054128;28;20100;-46
2021/11/16 03:19:27;;;;;;;47.35;27.88;;;;;;;;;;5054061;28;20028;-45
2021/11/16 03:21:57;;;;;;;44.88;27.15;;;;;;;;;;5053723;28;20025;-48
2021/11/16 03:24:25;;;;;;;48.08;27.08;;;;;;;;;;5054007;28;20078;-46
2021/11/16 03:26:52;;;;;;;43.95;26.50;;;;;;;;;;5053834;28;20029;-47
2021/11/16 03:29:23;;;;;;;50.85;27.60;;;;;;;;;;5053297;28;20068;-46
2021/11/16 03:31:53;;;;;;;57.95;31.00;;;;;;;;;;5053970;28;20025;-46
2021/11/16 03:34:19;;;;;;;48.42;29.05;;;;;;;;;;5053830;28;20057;-48
2021/11/16 03:36:49;;;;;;;47.78;28.77;;;;;;;;;;5053611;28;20028;-46
2021/11/16 03:39:15;;;;;;;51.90;29.13;;;;;;;;;;5053570;28;20031;-46
2021/11/16 03:41:41;;;;;;;60.63;30.63;;;;;;;;;;5053558;28;20059;-45
2021/11/16 03:44:07;;;;;;;52.65;29.35;;;;;;;;;;5053414;28;20461;-46
2021/11/16 03:46:33;;;;;;;53.95;30.92;;;;;;;;;;5053540;28;20029;-48
2021/11/16 03:49:00;;;;;;;49.85;30.40;;;;;;;;;;5053441;28;20503;-51
2021/11/16 03:51:26;;;;;;;50.97;29.85;;;;;;;;;;5053165;28;20041;-48
2021/11/16 03:53:52;;;;;;;49.95;29.75;;;;;;;;;;5053275;28;20553;-47
2021/11/16 03:56:19;;;;;;;54.50;29.17;;;;;;;;;;5053186;28;20028;-45
2021/11/16 03:58:46;;;;;;;49.60;28.38;;;;;;;;;;5053715;28;20028;-46
2021/11/16 04:01:13;;;;;;;45.97;29.10;;;;;;;;;;5053035;28;20017;-45
2021/11/16 04:03:40;;;;;;;53.95;28.38;;;;;;;;;;5053375;28;20373;-45
2021/11/16 04:06:07;;;;;;;55.28;29.42;;;;;;;;;;5053124;28;20020;-44
2021/11/16 04:08:33;;;;;;;48.45;29.08;;;;;;;;;;5053027;28;20076;-46
2021/11/16 04:11:00;;;;;;;50.55;26.35;;;;;;;;;;5053324;28;20097;-45
2021/11/16 04:13:26;;;;;;;43.90;25.25;;;;;;;;;;5053136;28;20029;-45
2021/11/16 04:15:52;;;;;;;45.25;24.08;;;;;;;;;;5052879;28;20017;-46
2021/11/16 04:18:20;;;;;;;34.40;19.85;;;;;;;;;;5053252;28;20368;-46
2021/11/16 04:20:48;;;;;;;36.30;21.67;;;;;;;;;;5053156;28;20051;-44
2021/11/16 04:23:15;;;;;;;34.17;18.98;;;;;;;;;;5052980;28;20037;-45
2021/11/16 04:25:42;;;;;;;33.22;18.80;;;;;;;;;;5052801;28;20020;-45
2021/11/16 04:28:10;;;;;;;33.33;18.48;;;;;;;;;;5052697;28;20031;-45
2021/11/16 04:30:36;;;;;;;32.60;19.35;;;;;;;;;;5052762;28;20028;-45
2021/11/16 04:33:02;;;;;;;37.95;20.92;;;;;;;;;;5052813;28;20171;-46
2021/11/16 04:35:29;;;;;;;27.98;16.83;;;;;;;;;;5052631;28;20029;-47
2021/11/16 04:37:56;;;;;;;32.60;18.92;;;;;;;;;;5052613;28;20046;-45
2021/11/16 04:40:30;;;;;;;40.92;22.23;;;;;;;;;;5052663;28;20566;-44
2021/11/16 04:42:58;;;;;;;35.58;19.73;;;;;;;;;;5056665;28;20102;-45
2021/11/16 04:45:25;;;;;;;30.70;18.38;;;;;;;;;;5056689;28;20372;-45
2021/11/16 04:47:59;;;;;;;40.03;20.15;;;;;;;;;;5055662;28;20374;-45
2021/11/16 04:50:36;;;;;;;39.88;22.20;;;;;;;;;;5056469;28;20041;-44
2021/11/16 04:53:18;;;;;;;34.40;20.08;;;;;;;;;;5056517;28;20069;-46
2021/11/16 04:55:49;;;;;;;38.80;22.48;;;;;;;;;;5056433;28;20029;-46
2021/11/16 05:03:47;;;;;;;35.40;20.40;;;;;;;;;;5056740;28;20043;-46
2021/11/16 05:06:14;;;;;;;33.20;19.60;;;;;;;;;;5056261;28;20083;-47
2021/11/16 05:08:43;;;;;;;45.13;24.65;;;;;;;;;;5056409;28;20440;-47
2021/11/16 05:11:09;;;;;;;40.80;24.52;;;;;;;;;;5056378;28;20435;-49
2021/11/16 05:13:37;;;;;;;41.42;22.80;;;;;;;;;;5056221;28;20029;-47
2021/11/16 05:16:04;;;;;;;45.55;24.50;;;;;;;;;;5056218;28;20017;-48
2021/11/16 05:18:30;;;;;;;71.50;35.22;;;;;;;;;;5056392;28;20399;-50
2021/11/16 05:20:58;;;;;;;52.00;28.58;;;;;;;;;;5056199;28;20029;-48
2021/11/16 05:23:26;;;;;;;55.55;29.85;;;;;;;;;;5056082;28;20025;-47
2021/11/16 05:25:53;;;;;;;64.90;34.90;;;;;;;;;;5056009;28;20453;-47
2021/11/16 05:28:22;;;;;;;56.90;32.35;;;;;;;;;;5055913;28;20037;-48
2021/11/16 05:30:48;;;;;;;54.28;30.88;;;;;;;;;;5055691;28;20024;-47
2021/11/16 05:33:15;;;;;;;52.90;29.90;;;;;;;;;;5056072;28;20013;-46
2021/11/16 05:35:42;;;;;;;56.92;31.73;;;;;;;;;;5055885;28;20078;-46
2021/11/16 05:38:20;;;;;;;57.05;31.95;;;;;;;;;;5055896;28;20078;-47
2021/11/16 05:40:47;;;;;;;55.63;30.92;;;;;;;;;;5055814;28;20033;-47
2021/11/16 05:43:13;;;;;;;66.20;34.60;;;;;;;;;;5055592;28;20017;-46
2021/11/16 05:45:39;;;;;;;46.55;27.17;;;;;;;;;;5055647;28;20061;-46
2021/11/16 05:48:05;;;;;;;47.10;26.83;;;;;;;;;;5055773;28;20092;-48
2021/11/16 05:50:39;;;;;;;52.83;30.95;;;;;;;;;;5055492;28;20024;-48
2021/11/16 05:53:05;;;;;;;60.47;32.72;;;;;;;;;;5055468;28;20456;-47
2021/11/16 05:55:34;;;;;;;47.50;28.88;;;;;;;;;;5055660;28;20028;-47
2021/11/16 05:58:03;;;;;;;51.35;28.33;;;;;;;;;;5055368;28;20514;-50
2021/11/16 06:00:29;;;;;;;54.72;31.35;;;;;;;;;;5055407;28;20058;-46
2021/11/16 06:02:55;;;;;;;71.40;39.25;;;;;;;;;;5055691;28;20384;-47
2021/11/16 06:05:21;;;;;;;49.78;28.80;;;;;;;;;;5054648;28;20444;-46
2021/11/16 06:07:47;;;;;;;41.50;24.35;;;;;;;;;;5055247;28;20029;-46
2021/11/16 06:10:14;;;;;;;49.35;27.52;;;;;;;;;;5055139;28;20033;-47
2021/11/16 06:12:41;;;;;;;47.97;30.08;;;;;;;;;;5055039;28;20386;-47
2021/11/16 06:15:07;;;;;;;66.28;32.00;;;;;;;;;;5055087;28;20087;-47
2021/11/16 06:17:33;;;;;;;57.65;29.77;;;;;;;;;;5055120;28;20469;-47
2021/11/16 06:20:00;;;;;;;45.53;25.55;;;;;;;;;;5055154;28;20037;-47
2021/11/16 06:22:27;;;;;;;47.55;26.98;;;;;;;;;;5055185;28;20366;-49
2021/11/16 06:24:53;;;;;;;57.80;28.00;;;;;;;;;;5055077;28;20108;-47
2021/11/16 06:27:20;;;;;;;55.08;26.33;;;;;;;;;;5055199;28;20094;-47
2021/11/16 06:29:46;;;;;;;54.03;26.98;;;;;;;;;;5055001;28;20174;-47
2021/11/16 06:32:12;;;;;;;50.05;26.17;;;;;;;;;;5055209;28;20047;-48
2021/11/16 06:34:38;;;;;;;50.10;26.73;;;;;;;;;;5054945;28;20113;-50
2021/11/16 06:37:05;;;;;;;42.28;25.85;;;;;;;;;;5054945;28;20488;-49
2021/11/16 06:39:31;;;;;;;34.10;21.98;;;;;;;;;;5054974;28;20035;-47
2021/11/16 06:41:59;;;;;;;39.92;26.50;;;;;;;;;;5054741;28;20020;-46
2021/11/16 06:44:25;;;;;;;32.05;16.23;;;;;;;;;;5054924;28;20032;-49
2021/11/16 06:46:55;;;;;;;28.33;16.75;;;;;;;;;;5054544;28;20483;-47
2021/11/16 06:49:21;;;;;;;87.88;41.83;;;;;;;;;;5054853;28;20043;-47
2021/11/16 06:51:49;;;;;;;52.20;28.27;;;;;;;;;;5054610;28;20041;-48
2021/11/16 06:54:23;;;;;;;31.55;18.23;;;;;;;;;;5054522;28;20098;-49
2021/11/16 06:56:49;;;;;;;28.30;19.23;;;;;;;;;;5054559;28;20013;-47
2021/11/16 06:59:20;;;;;;;30.98;18.17;;;;;;;;;;5054610;28;20029;-49
2021/11/16 07:01:46;;;;;;;25.83;15.85;;;;;;;;;;5054362;28;20028;-50
2021/11/16 07:04:13;;;;;;;33.67;20.55;;;;;;;;;;5053772;28;20353;-48
2021/11/16 07:06:43;;;;;;;31.83;18.30;;;;;;;;;;5054259;28;20025;-47
2021/11/16 07:09:11;;;;;;;29.52;17.10;;;;;;;;;;5054445;28;20461;-51
2021/11/16 07:11:49;;;;;;;32.85;19.15;;;;;;;;;;5054402;28;20480;-47
2021/11/16 07:14:20;;;;;;;32.80;18.27;;;;;;;;;;5054373;28;20574;-50
2021/11/16 07:16:58;;;;;;;32.17;16.90;;;;;;;;;;5054084;28;20062;-49
2021/11/16 07:19:35;;;;;;;29.75;16.90;;;;;;;;;;5054211;28;20103;-47
2021/11/16 07:22:04;;;;;;;30.85;18.75;;;;;;;;;;5054071;28;20155;-47
2021/11/16 07:24:31;;;;;;;23.77;14.20;;;;;;;;;;5054246;28;20017;-48
2021/11/16 07:26:58;;;;;;;28.23;16.80;;;;;;;;;;5053700;28;20120;-46
2021/11/16 07:29:35;;;;;;;26.48;13.88;;;;;;;;;;5053964;28;20094;-47
2021/11/16 07:32:03;;;;;;;31.77;22.23;;;;;;;;;;5053689;28;20424;-49
2021/11/16 07:34:30;;;;;;;43.72;24.85;;;;;;;;;;5053757;28;20104;-48
2021/11/16 07:36:58;;;;;;;39.72;20.33;;;;;;;;;;5053582;28;20025;-49
2021/11/16 07:39:28;;;;;;;37.08;18.88;;;;;;;;;;5053778;28;20032;-48
2021/11/16 07:42:07;;;;;;;38.28;22.65;;;;;;;;;;5053744;28;20112;-48
2021/11/16 07:44:35;;;;;;;31.33;18.35;;;;;;;;;;5053739;28;20033;-48
2021/11/16 07:47:01;;;;;;;28.23;14.50;;;;;;;;;;5053536;28;20082;-49
2021/11/16 07:49:27;;;;;;;29.38;15.52;;;;;;;;;;5053391;28;20037;-48
2021/11/16 07:51:54;;;;;;;27.08;15.15;;;;;;;;;;5053664;28;20524;-48
2021/11/16 07:54:31;;;;;;;41.88;20.77;;;;;;;;;;5053496;28;20074;-47
2021/11/16 07:57:04;;;;;;;43.33;24.13;;;;;;;;;;5053329;28;20025;-50
2021/11/16 07:59:30;;;;;;;33.38;22.52;;;;;;;;;;5053415;28;20029;-48
2021/11/16 08:01:59;;;;;;;23.08;12.25;;;;;;;;;;5053278;28;20466;-48
2021/11/16 08:04:39;;;;;;;40.25;23.08;;;;;;;;;;5053381;28;20354;-47
2021/11/16 08:09:55;;;;;;;63.10;40.00;;;;;;;;;;5053372;28;20051;-48
2021/11/16 08:12:40;;;;;;;56.35;23.63;;;;;;;;;;5053231;28;20044;-46
2021/11/16 08:15:09;;;;;;;56.75;32.55;;;;;;;;;;5053010;28;20025;-48
2021/11/16 08:17:36;;;;;;;47.35;23.30;;;;;;;;;;5053005;28;20021;-48
2021/11/16 08:20:10;;;;;;;39.00;23.00;;;;;;;;;;5053186;28;20068;-49
2021/11/16 08:22:36;;;;;;;114.05;86.82;;;;;;;;;;5053149;28;20384;-49
2021/11/16 08:25:03;;;;;;;84.07;46.80;;;;;;;;;;5052912;28;20032;-47
2021/11/16 08:27:36;;;;;;;114.85;62.38;;;;;;;;;;5053454;28;20075;-47
2021/11/16 08:30:11;;;;;;;119.25;74.30;;;;;;;;;;5053100;28;20040;-49
2021/11/16 08:32:39;;;;;;;97.25;59.47;;;;;;;;;;5053023;28;20373;-46
2021/11/16 08:35:13;;;;;;;109.57;74.13;;;;;;;;;;5052868;28;20504;-48
2021/11/16 08:37:41;;;;;;;55.70;49.97;;;;;;;;;;5052859;28;20082;-48
2021/11/16 08:40:12;;;;;;;54.00;48.33;;;;;;;;;;5052905;28;20094;-49
2021/11/16 08:42:39;;;;;;;138.55;93.90;;;;;;;;;;5053087;28;20023;-48
2021/11/16 08:45:15;;;;;;;265.45;110.60;;;;;;;;;;5053007;28;20025;-49
2021/11/16 08:47:47;;;;;;;187.55;83.97;;;;;;;;;;5053005;28;20032;-50
2021/11/16 08:50:18;;;;;;;137.82;59.40;;;;;;;;;;5052406;28;20178;-49
2021/11/16 08:52:44;;;;;;;112.35;60.20;;;;;;;;;;5052460;28;20049;-48
2021/11/16 08:55:18;;;;;;;167.93;67.47;;;;;;;;;;5052742;28;20032;-49
2021/11/16 08:57:45;;;;;;;131.70;51.08;;;;;;;;;;5052967;28;20020;-50
2021/11/16 09:00:16;;;;;;;141.90;50.08;;;;;;;;;;5052154;28;20025;-49
2021/11/16 09:02:42;;;;;;;18.50;9.50;;;;;;;;;;5052700;28;20053;-50
2021/11/16 09:05:10;;;;;;;77.38;53.35;;;;;;;;;;5052725;28;20032;-52
2021/11/16 09:07:36;;;;;;;53.03;24.60;;;;;;;;;;5052692;28;20037;-53
2021/11/16 09:10:06;;;;;;;133.68;35.92;;;;;;;;;;5052412;28;20029;-50
2021/11/16 09:12:47;;;;;;;53.00;26.35;;;;;;;;;;5052616;28;20020;-48
2021/11/16 09:15:18;;;;;;;94.15;32.45;;;;;;;;;;5052699;28;20385;-48
2021/11/16 09:17:44;;;;;;;100.85;41.45;;;;;;;;;;5052438;28;20032;-49
2021/11/16 09:20:14;;;;;;;74.25;35.83;;;;;;;;;;5052578;28;20033;-50
2021/11/16 09:22:40;;;;;;;19.00;9.95;;;;;;;;;;5052502;28;20043;-49
2021/11/16 09:25:28;;;;;;;17.88;9.50;;;;;;;;;;5052383;28;20029;-48
2021/11/16 09:28:00;;;;;;;41.05;22.48;;;;;;;;;;5054742;28;20158;-49
2021/11/16 09:30:33;;;;;;;60.80;31.70;;;;;;;;;;5056209;28;20071;-50
2021/11/16 09:33:16;;;;;;;85.38;52.40;;;;;;;;;;5056253;28;20108;-49
2021/11/16 09:35:46;;;;;;;69.85;26.85;;;;;;;;;;5056099;28;20038;-50
2021/11/16 09:38:12;;;;;;;125.57;56.33;;;;;;;;;;5054618;28;20218;-49
2021/11/16 09:40:38;;;;;;;44.97;23.80;;;;;;;;;;5055807;28;20021;-49
2021/11/16 09:43:04;;;;;;;18.10;11.15;;;;;;;;;;5055907;28;20053;-50
2021/11/16 09:45:33;;;;;;;23.33;13.32;;;;;;;;;;5055642;28;20021;-50
2021/11/16 09:48:03;;;;;;;17.73;10.35;;;;;;;;;;5055700;28;20031;-49
2021/11/16 09:50:29;;;;;;;17.90;10.43;;;;;;;;;;5055560;28;20045;-50
2021/11/16 09:52:59;;;;;;;16.27;9.20;;;;;;;;;;5055633;28;20044;-49
2021/11/16 09:55:33;;;;;;;17.65;8.10;;;;;;;;;;5055434;28;20020;-49
2021/11/16 09:58:04;;;;;;;19.05;9.45;;;;;;;;;;5055516;28;20107;-49
2021/11/16 10:00:32;;;;;;;19.63;9.07;;;;;;;;;;5055467;28;20025;-47
2021/11/16 10:03:01;;;;;;;19.92;10.23;;;;;;;;;;5055399;28;20017;-47
2021/11/16 10:05:28;;;;;;;20.73;10.00;;;;;;;;;;5055211;28;20025;-49
2021/11/16 10:07:55;;;;;;;13.50;8.75;;;;;;;;;;5055248;28;20385;-49
2021/11/16 10:10:23;;;;;;;23.33;11.65;;;;;;;;;;5055428;28;20443;-47
2021/11/16 10:12:53;;;;;;;16.17;9.25;;;;;;;;;;5055227;28;20029;-50
2021/11/16 10:15:20;;;;;;;21.52;10.63;;;;;;;;;;5055259;28;20362;-52
2021/11/16 10:17:48;;;;;;;15.15;9.52;;;;;;;;;;5054965;28;20021;-47
2021/11/16 10:20:16;;;;;;;14.82;9.32;;;;;;;;;;5055134;28;20051;-48
2021/11/16 10:22:46;;;;;;;21.42;10.27;;;;;;;;;;5054875;28;20025;-50
2021/11/16 10:25:17;;;;;;;20.42;9.82;;;;;;;;;;5055271;28;20102;-49
2021/11/16 10:27:44;;;;;;;21.90;12.23;;;;;;;;;;5055189;28;20027;-50
2021/11/16 10:30:20;;;;;;;20.00;10.45;;;;;;;;;;5054935;28;20150;-50
2021/11/16 10:32:48;;;;;;;18.52;9.90;;;;;;;;;;5054853;28;20429;-49
2021/11/16 10:35:22;;;;;;;15.15;9.32;;;;;;;;;;5055047;28;20086;-49
2021/11/16 10:37:50;;;;;;;12.07;7.72;;;;;;;;;;5054839;28;20452;-50
2021/11/16 10:40:17;;;;;;;20.30;8.85;;;;;;;;;;5054068;28;20032;-49
2021/11/16 10:42:45;;;;;;;16.20;9.05;;;;;;;;;;5055174;28;20370;-49
2021/11/16 10:45:15;;;;;;;16.88;9.57;;;;;;;;;;5054598;28;20025;-49
2021/11/16 10:47:42;;;;;;;18.15;8.73;;;;;;;;;;5054720;28;20358;-50
2021/11/16 10:50:12;;;;;;;18.65;9.18;;;;;;;;;;5054412;28;20119;-50
2021/11/16 10:52:38;;;;;;;18.00;9.38;;;;;;;;;;5054437;28;20051;-49
2021/11/16 10:55:06;;;;;;;18.88;10.75;;;;;;;;;;5054563;28;20028;-49
2021/11/16 10:57:50;;;;;;;18.02;9.38;;;;;;;;;;5054349;28;20048;-49
2021/11/16 11:00:19;;;;;;;13.80;8.55;;;;;;;;;;5054368;28;20029;-48
2021/11/16 11:02:45;;;;;;;14.80;9.20;;;;;;;;;;5054177;28;20027;-48
2021/11/16 11:05:11;;;;;;;18.55;10.18;;;;;;;;;;5054276;28;20025;-47
2021/11/16 11:07:39;;;;;;;17.58;9.45;;;;;;;;;;5054185;28;20132;-47
2021/11/16 11:10:05;;;;;;;23.77;9.50;;;;;;;;;;5054046;28;20449;-49
2021/11/16 11:12:33;;;;;;;17.48;10.13;;;;;;;;;;5054127;28;20036;-48
2021/11/16 11:14:59;;;;;;;19.50;11.13;;;;;;;;;;5054000;28;20025;-47
2021/11/16 11:17:51;;;;;;;16.63;10.82;;;;;;;;;;5053723;28;20027;-48
2021/11/16 11:20:20;;;;;;;24.73;11.80;;;;;;;;;;5052012;28;20048;-49
2021/11/16 11:22:46;;;;;;;17.10;10.88;;;;;;;;;;5054054;28;20029;-47
2021/11/16 11:28:09;;;;;;;20.15;11.93;;;;;;;;;;5053656;28;20068;-47
2021/11/16 11:30:38;;;;;;;21.90;10.68;;;;;;;;;;5053894;28;20029;-47
2021/11/16 11:33:04;;;;;;;23.23;10.40;;;;;;;;;;5053640;28;20457;-48
2021/11/16 11:35:31;;;;;;;22.17;12.40;;;;;;;;;;5053566;28;20481;-47
2021/11/16 11:37:59;;;;;;;24.67;11.90;;;;;;;;;;5053595;28;20353;-47
2021/11/16 11:40:29;;;;;;;20.58;11.35;;;;;;;;;;5053642;28;20376;-48
2021/11/16 11:42:57;;;;;;;21.00;11.43;;;;;;;;;;5053566;28;20040;-48
2021/11/16 11:45:24;;;;;;;20.55;11.77;;;;;;;;;;5053448;28;20021;-49
2021/11/16 11:47:56;;;;;;;18.13;11.23;;;;;;;;;;5053330;28;20424;-49
2021/11/16 11:50:25;;;;;;;23.80;11.35;;;;;;;;;;5053300;28;20033;-50
2021/11/16 11:52:52;;;;;;;19.50;12.23;;;;;;;;;;5053367;28;20037;-50
2021/11/16 11:55:18;;;;;;;18.20;10.77;;;;;;;;;;5053141;28;20033;-48
2021/11/16 11:57:47;;;;;;;18.90;11.60;;;;;;;;;;5053451;28;20358;-48
2021/11/16 12:00:14;;;;;;;27.15;13.07;;;;;;;;;;5053362;28;20043;-48
2021/11/16 12:02:40;;;;;;;26.13;12.70;;;;;;;;;;5053114;28;20481;-48
2021/11/16 12:05:07;;;;;;;18.15;11.73;;;;;;;;;;5053293;28;20502;-49
2021/11/16 12:07:33;;;;;;;22.13;9.60;;;;;;;;;;5053221;28;20141;-48
2021/11/16 12:09:59;;;;;;;24.48;12.98;;;;;;;;;;5053123;28;20035;-48
2021/11/16 12:12:26;;;;;;;21.05;12.88;;;;;;;;;;5053001;28;20017;-48
2021/11/16 12:15:12;;;;;;;27.50;13.32;;;;;;;;;;5053122;28;20460;-48
2021/11/16 12:17:49;;;;;;;19.98;11.88;;;;;;;;;;5052860;28;20043;-48
2021/11/16 12:20:33;;;;;;;23.25;13.77;;;;;;;;;;5052988;28;20381;-49
2021/11/16 12:22:59;;;;;;;24.52;13.05;;;;;;;;;;5053041;28;20040;-48
2021/11/16 12:25:26;;;;;;;25.23;13.90;;;;;;;;;;5052890;28;20023;-49
2021/11/16 12:27:52;;;;;;;22.05;11.75;;;;;;;;;;5052762;28;20067;-48
2021/11/16 12:30:22;;;;;;;23.25;12.63;;;;;;;;;;5052712;28;20051;-48
2021/11/16 12:32:52;;;;;;;22.15;12.40;;;;;;;;;;5052816;28;20048;-49
2021/11/16 12:35:20;;;;;;;22.35;13.10;;;;;;;;;;5052740;28;20025;-49
2021/11/16 12:37:48;;;;;;;21.75;12.93;;;;;;;;;;5052802;28;20096;-48
2021/11/16 12:40:44;;;;;;;21.13;12.40;;;;;;;;;;5052807;28;20032;-49
2021/11/16 12:43:25;;;;;;;24.15;13.75;;;;;;;;;;5011058;28;20090;-48
2021/11/16 12:45:56;;;;;;;30.38;15.65;;;;;;;;;;5010963;28;20080;-49
2021/11/16 12:48:41;;;;;;;28.17;15.48;;;;;;;;;;5010873;28;20041;-49
2021/11/16 12:51:07;;;;;;;24.27;13.30;;;;;;;;;;5010706;28;20061;-49
2021/11/16 12:53:52;;;;;;;25.10;13.13;;;;;;;;;;5010884;28;20547;-48
2021/11/16 12:56:18;;;;;;;20.38;12.10;;;;;;;;;;5010797;28;20040;-48
2021/11/16 12:58:51;;;;;;;24.52;13.70;;;;;;;;;;5010891;28;20026;-48
2021/11/16 13:01:35;;;;;;;28.02;13.85;;;;;;;;;;5010963;28;20088;-48
2021/11/16 13:04:06;;;;;;;24.02;13.52;;;;;;;;;;5015011;28;20061;-48
2021/11/16 13:06:32;;;;;;;25.95;14.35;;;;;;;;;;5014672;28;20038;-47
2021/11/16 13:09:01;;;;;;;29.58;14.25;;;;;;;;;;5014653;28;20046;-48
2021/11/16 13:11:42;;;;;;;25.27;15.40;;;;;;;;;;5014513;28;20128;-47
2021/11/16 13:14:12;;;;;;;25.58;14.75;;;;;;;;;;5014598;28;20124;-49
2021/11/16 13:16:38;;;;;;;28.15;14.70;;;;;;;;;;5014458;28;20022;-48
2021/11/16 13:19:05;;;;;;;23.85;14.30;;;;;;;;;;5026630;28;20029;-47
2021/11/16 13:21:38;;;;;;;29.65;15.18;;;;;;;;;;5056355;28;20381;-48
2021/11/16 13:24:05;;;;;;;25.75;12.95;;;;;;;;;;5056094;28;20036;-48
2021/11/16 13:26:44;;;;;;;25.10;14.07;;;;;;;;;;5056284;28;20476;-48
2021/11/16 13:29:24;;;;;;;27.80;15.23;;;;;;;;;;5056340;28;20040;-48
2021/11/16 13:31:52;;;;;;;25.80;14.27;;;;;;;;;;5055854;28;20037;-48
2021/11/16 13:34:21;;;;;;;27.83;15.20;;;;;;;;;;5056000;28;20032;-48
2021/11/16 13:36:52;;;;;;;27.50;14.85;;;;;;;;;;5056127;28;20017;-49
2021/11/16 13:39:18;;;;;;;26.80;14.90;;;;;;;;;;5056140;28;20369;-49
2021/11/16 13:41:50;;;;;;;25.23;14.77;;;;;;;;;;5056004;28;20104;-49
2021/11/16 13:44:16;;;;;;;24.45;14.35;;;;;;;;;;5055738;28;20020;-48
2021/11/16 13:46:43;;;;;;;24.35;14.80;;;;;;;;;;5055685;28;20021;-49
2021/11/16 13:49:20;;;;;;;25.85;15.50;;;;;;;;;;5055697;28;20111;-49
2021/11/16 13:51:46;;;;;;;23.80;13.23;;;;;;;;;;5055530;28;20056;-48
2021/11/16 13:54:12;;;;;;;25.27;15.15;;;;;;;;;;5055599;28;20025;-48
2021/11/16 13:56:38;;;;;;;28.73;14.93;;;;;;;;;;5055382;28;20037;-48
2021/11/16 13:59:19;;;;;;;24.30;14.38;;;;;;;;;;5055418;28;20031;-48
2021/11/16 14:01:47;;;;;;;25.17;13.68;;;;;;;;;;5055277;28;20116;-48
2021/11/16 14:04:15;;;;;;;26.50;14.38;;;;;;;;;;5055589;28;20104;-50
2021/11/16 14:06:41;;;;;;;27.40;14.10;;;;;;;;;;5055565;28;20067;-47
2021/11/16 14:09:11;;;;;;;29.10;15.70;;;;;;;;;;5055266;28;20021;-49
2021/11/16 14:11:50;;;;;;;27.17;15.27;;;;;;;;;;5055213;28;20033;-49
2021/11/16 14:14:18;;;;;;;23.42;13.30;;;;;;;;;;5055570;28;20417;-48
2021/11/16 14:16:44;;;;;;;25.67;16.15;;;;;;;;;;5055163;28;20021;-48
2021/11/16 14:19:11;;;;;;;28.30;16.85;;;;;;;;;;5055307;28;20099;-48
2021/11/16 14:21:38;;;;;;;24.67;14.60;;;;;;;;;;5055078;28;20147;-48
2021/11/16 14:24:05;;;;;;;25.77;15.07;;;;;;;;;;5055578;28;20056;-48
2021/11/16 14:26:32;;;;;;;24.80;14.65;;;;;;;;;;5054944;28;20377;-49
2021/11/16 14:28:59;;;;;;;27.17;15.63;;;;;;;;;;5054926;28;20476;-50
2021/11/16 14:31:31;;;;;;;33.13;16.90;;;;;;;;;;5055002;28;20033;-48
2021/11/16 14:33:57;;;;;;;;;;;;;;;;;;5055228;28;20075;-49
2021/11/16 14:36:29;;;;;;;33.80;17.80;;;;;;;;;;5055184;28;19974;-49
2021/11/16 14:39:02;;;;;;;33.60;17.52;;;;;;;;;;5054717;28;20106;-48